Highland, Louisiana
Current Conditions -  °F | °C
As of 5:15 PM on Thursday 20 Nov 2014 (Local Time) from KHEZ Reporting Station
Overcast Overcast  
Wind Chill: 17°   Ceiling: 8000
Heat Index: 17°   Visibility: 10mi
Dew Point:   Wind: 3mph
Humidity: 59%   Direction: 160°SSE
Pressure: 30.17"   Gusts: NA
Location:  31.835°N, 91.3655°W
Report Text: KHEZ 202315Z AUTO 16003KT 10SM OVC080 17/09 A3017 RMK AO1
Loading
Personal Weather Stations






























Interactive Weather Map New forecast layout! Learn more

10-Day Weather Forecast

Advertisements
Track Severe Weather on mobile